sensor_id;sensor_type;location;lat;lon;timestamp;pressure;altitude;pressure_sealevel;temperature;humidity
63607;BME280;71992;52.478;-1.918;2024-03-23T00:54:19;99587.75;;;5.39;82.07
63607;BME280;71992;52.478;-1.918;2024-03-23T00:56:48;99592.44;;;5.34;82.01
63607;BME280;71992;52.478;-1.918;2024-03-23T00:59:16;99583.69;;;5.32;82.52
63607;BME280;71992;52.478;-1.918;2024-03-23T01:01:44;99588.97;;;5.32;83.11
63607;BME280;71992;52.478;-1.918;2024-03-23T01:04:12;99582.81;;;5.31;82.86
63607;BME280;71992;52.478;-1.918;2024-03-23T01:06:43;99576.66;;;5.31;83.46
63607;BME280;71992;52.478;-1.918;2024-03-23T01:09:11;99573.09;;;5.32;83.60
63607;BME280;71992;52.478;-1.918;2024-03-23T01:11:39;99578.47;;;5.30;82.13
63607;BME280;71992;52.478;-1.918;2024-03-23T01:14:07;99583.13;;;5.25;81.52
63607;BME280;71992;52.478;-1.918;2024-03-23T01:16:36;99568.34;;;5.19;82.17
63607;BME280;71992;52.478;-1.918;2024-03-23T01:19:04;99563.06;;;5.19;82.49
63607;BME280;71992;52.478;-1.918;2024-03-23T01:21:32;99571.22;;;5.15;83.22
63607;BME280;71992;52.478;-1.918;2024-03-23T01:24:03;99564.50;;;5.08;82.49
63607;BME280;71992;52.478;-1.918;2024-03-23T01:26:31;99568.16;;;5.05;83.26
63607;BME280;71992;52.478;-1.918;2024-03-23T01:28:59;99556.75;;;5.03;84.24
63607;BME280;71992;52.478;-1.918;2024-03-23T01:31:27;99554.75;;;5.08;85.78
63607;BME280;71992;52.478;-1.918;2024-03-23T01:33:56;99552.13;;;5.08;84.36
63607;BME280;71992;52.478;-1.918;2024-03-23T01:36:24;99553.13;;;5.06;85.38
63607;BME280;71992;52.478;-1.918;2024-03-23T01:38:52;99547.97;;;5.02;83.83
63607;BME280;71992;52.478;-1.918;2024-03-23T01:41:24;99541.03;;;5.00;83.49
63607;BME280;71992;52.478;-1.918;2024-03-23T01:43:54;99548.19;;;4.98;83.87
63607;BME280;71992;52.478;-1.918;2024-03-23T01:46:23;99544.75;;;4.96;84.26
63607;BME280;71992;52.478;-1.918;2024-03-23T01:48:51;99541.69;;;4.86;85.15
63607;BME280;71992;52.478;-1.918;2024-03-23T01:51:20;99532.00;;;4.85;85.48
63607;BME280;71992;52.478;-1.918;2024-03-23T01:53:48;99531.84;;;4.88;85.68
63607;BME280;71992;52.478;-1.918;2024-03-23T01:56:17;99519.50;;;4.89;85.06
63607;BME280;71992;52.478;-1.918;2024-03-23T01:58:47;99525.84;;;4.85;84.96
63607;BME280;71992;52.478;-1.918;2024-03-23T02:01:16;99524.22;;;4.82;85.13
63607;BME280;71992;52.478;-1.918;2024-03-23T02:03:44;99525.53;;;4.72;84.88
63607;BME280;71992;52.478;-1.918;2024-03-23T02:06:12;99520.25;;;4.72;85.19
63607;BME280;71992;52.478;-1.918;2024-03-23T02:08:40;99509.63;;;4.73;86.06
63607;BME280;71992;52.478;-1.918;2024-03-23T02:11:09;99515.50;;;4.80;86.27
63607;BME280;71992;52.478;-1.918;2024-03-23T02:13:37;99515.50;;;4.80;86.00
63607;BME280;71992;52.478;-1.918;2024-03-23T02:16:08;99507.75;;;4.75;84.98
63607;BME280;71992;52.478;-1.918;2024-03-23T02:18:36;99508.81;;;4.71;87.49
63607;BME280;71992;52.478;-1.918;2024-03-23T02:21:05;99506.81;;;4.76;86.30
63607;BME280;71992;52.478;-1.918;2024-03-23T02:23:36;99509.47;;;4.76;85.63
63607;BME280;71992;52.478;-1.918;2024-03-23T02:26:04;99506.13;;;4.73;86.55
63607;BME280;71992;52.478;-1.918;2024-03-23T02:28:32;99502.53;;;4.74;86.34
63607;BME280;71992;52.478;-1.918;2024-03-23T02:31:00;99502.53;;;4.74;85.80
63607;BME280;71992;52.478;-1.918;2024-03-23T02:33:28;99508.75;;;4.73;86.50
63607;BME280;71992;52.478;-1.918;2024-03-23T02:35:56;99498.97;;;4.75;86.39
63607;BME280;71992;52.478;-1.918;2024-03-23T02:38:25;99498.19;;;4.73;86.54
63607;BME280;71992;52.478;-1.918;2024-03-23T02:41:02;99498.19;;;4.73;85.72
63607;BME280;71992;52.478;-1.918;2024-03-23T02:43:30;99495.59;;;4.71;86.10
63607;BME280;71992;52.478;-1.918;2024-03-23T02:45:58;99486.88;;;4.69;85.95
63607;BME280;71992;52.478;-1.918;2024-03-23T02:48:26;99485.16;;;4.68;86.63
63607;BME280;71992;52.478;-1.918;2024-03-23T02:50:54;99473.69;;;4.68;86.81
63607;BME280;71992;52.478;-1.918;2024-03-23T02:53:22;99479.16;;;4.65;86.40
63607;BME280;71992;52.478;-1.918;2024-03-23T02:55:51;99470.50;;;4.61;86.02
63607;BME280;71992;52.478;-1.918;2024-03-23T02:58:21;99473.16;;;4.61;87.66
63607;BME280;71992;52.478;-1.918;2024-03-23T03:00:50;99469.34;;;4.67;87.53
63607;BME280;71992;52.478;-1.918;2024-03-23T03:03:18;99474.59;;;4.68;87.69
63607;BME280;71992;52.478;-1.918;2024-03-23T03:05:46;99470.00;;;4.72;87.46
63607;BME280;71992;52.478;-1.918;2024-03-23T03:08:14;99472.53;;;4.75;88.75
63607;BME280;71992;52.478;-1.918;2024-03-23T03:10:42;99478.50;;;4.78;87.49
63607;BME280;71992;52.478;-1.918;2024-03-23T03:13:10;99471.63;;;4.74;86.88
63607;BME280;71992;52.478;-1.918;2024-03-23T03:15:43;99461.16;;;4.73;87.75
63607;BME280;71992;52.478;-1.918;2024-03-23T03:18:11;99460.34;;;4.71;85.71
63607;BME280;71992;52.478;-1.918;2024-03-23T03:20:39;99468.34;;;4.69;85.57
63607;BME280;71992;52.478;-1.918;2024-03-23T03:23:07;99475.50;;;4.67;85.24
63607;BME280;71992;52.478;-1.918;2024-03-23T03:25:36;99479.41;;;4.58;85.33
63607;BME280;71992;52.478;-1.918;2024-03-23T03:28:04;99465.50;;;4.55;86.77
63607;BME280;71992;52.478;-1.918;2024-03-23T03:30:33;99460.78;;;4.62;86.15
63607;BME280;71992;52.478;-1.918;2024-03-23T03:33:04;99458.84;;;4.65;86.14
63607;BME280;71992;52.478;-1.918;2024-03-23T03:35:32;99451.06;;;4.62;86.09
63607;BME280;71992;52.478;-1.918;2024-03-23T03:38:00;99457.13;;;4.64;86.71
63607;BME280;71992;52.478;-1.918;2024-03-23T03:40:28;99453.22;;;4.73;87.01
63607;BME280;71992;52.478;-1.918;2024-03-23T03:42:56;99442.69;;;4.71;85.52
63607;BME280;71992;52.478;-1.918;2024-03-23T03:45:24;99440.25;;;4.67;86.66
63607;BME280;71992;52.478;-1.918;2024-03-23T03:47:52;99439.19;;;4.71;86.35
63607;BME280;71992;52.478;-1.918;2024-03-23T03:50:24;99430.41;;;4.70;85.77
63607;BME280;71992;52.478;-1.918;2024-03-23T03:52:52;99443.75;;;4.67;85.32
63607;BME280;71992;52.478;-1.918;2024-03-23T03:55:20;99428.03;;;4.64;86.13
63607;BME280;71992;52.478;-1.918;2024-03-23T03:57:48;99434.19;;;4.65;85.07
63607;BME280;71992;52.478;-1.918;2024-03-23T04:00:17;99419.31;;;4.62;85.75
63607;BME280;71992;52.478;-1.918;2024-03-23T04:02:45;99430.91;;;4.59;85.42
63607;BME280;71992;52.478;-1.918;2024-03-23T04:05:13;99417.09;;;4.53;85.45
63607;BME280;71992;52.478;-1.918;2024-03-23T04:07:44;99416.16;;;4.54;86.78
63607;BME280;71992;52.478;-1.918;2024-03-23T04:10:12;99412.59;;;4.55;86.59
63607;BME280;71992;52.478;-1.918;2024-03-23T04:12:40;99424.25;;;4.51;85.40
63607;BME280;71992;52.478;-1.918;2024-03-23T04:15:09;99416.47;;;4.48;86.02
63607;BME280;71992;52.478;-1.918;2024-03-23T04:17:37;99412.09;;;4.47;86.79
63607;BME280;71992;52.478;-1.918;2024-03-23T04:20:06;99414.09;;;4.60;87.00
63607;BME280;71992;52.478;-1.918;2024-03-23T04:22:35;99416.53;;;4.65;87.39
63607;BME280;71992;52.478;-1.918;2024-03-23T04:25:06;99408.59;;;4.65;86.14
63607;BME280;71992;52.478;-1.918;2024-03-23T04:27:34;99404.31;;;4.63;87.00
63607;BME280;71992;52.478;-1.918;2024-03-23T04:30:03;99408.91;;;4.59;86.16
63607;BME280;71992;52.478;-1.918;2024-03-23T04:32:31;99409.22;;;4.51;85.30
63607;BME280;71992;52.478;-1.918;2024-03-23T04:35:00;99407.00;;;4.42;85.68
63607;BME280;71992;52.478;-1.918;2024-03-23T04:37:28;99405.53;;;4.36;85.97
63607;BME280;71992;52.478;-1.918;2024-03-23T04:39:56;99402.66;;;4.41;87.80
63607;BME280;71992;52.478;-1.918;2024-03-23T04:42:27;99405.53;;;4.36;86.76
63607;BME280;71992;52.478;-1.918;2024-03-23T04:44:55;99409.94;;;4.36;87.55
63607;BME280;71992;52.478;-1.918;2024-03-23T04:47:23;99404.78;;;4.33;87.51
63607;BME280;71992;52.478;-1.918;2024-03-23T04:49:52;99405.94;;;4.27;87.66
63607;BME280;71992;52.478;-1.918;2024-03-23T04:52:20;99399.72;;;4.28;88.13
63607;BME280;71992;52.478;-1.918;2024-03-23T04:54:48;99404.22;;;4.26;87.40
63607;BME280;71992;52.478;-1.918;2024-03-23T04:57:16;99406.06;;;4.24;88.33
63607;BME280;71992;52.478;-1.918;2024-03-23T04:59:50;99407.69;;;4.27;88.04
63607;BME280;71992;52.478;-1.918;2024-03-23T05:02:19;99396.50;;;4.22;87.58
63607;BME280;71992;52.478;-1.918;2024-03-23T05:04:47;99397.28;;;4.24;88.17
63607;BME280;71992;52.478;-1.918;2024-03-23T05:07:15;99405.22;;;4.24;87.25
63607;BME280;71992;52.478;-1.918;2024-03-23T05:09:43;99397.13;;;4.27;87.39
63607;BME280;71992;52.478;-1.918;2024-03-23T05:12:11;99394.47;;;4.27;87.58
63607;BME280;71992;52.478;-1.918;2024-03-23T05:14:39;99389.88;;;4.32;87.72
63607;BME280;71992;52.478;-1.918;2024-03-23T05:17:10;99391.63;;;4.31;88.39
63607;BME280;71992;52.478;-1.918;2024-03-23T05:19:38;99382.72;;;4.34;88.55
63607;BME280;71992;52.478;-1.918;2024-03-23T05:22:06;99395.00;;;4.35;87.72
63607;BME280;71992;52.478;-1.918;2024-03-23T05:24:34;99390.66;;;4.34;87.36
63607;BME280;71992;52.478;-1.918;2024-03-23T05:27:03;99386.91;;;4.38;87.87
63607;BME280;71992;52.478;-1.918;2024-03-23T05:29:31;99384.28;;;4.38;88.13
63607;BME280;71992;52.478;-1.918;2024-03-23T05:31:59;99373.59;;;4.41;88.20
63607;BME280;71992;52.478;-1.918;2024-03-23T05:34:30;99382.31;;;4.43;88.00
63607;BME280;71992;52.478;-1.918;2024-03-23T05:36:58;99367.28;;;4.44;87.44
63607;BME280;71992;52.478;-1.918;2024-03-23T05:39:26;99374.16;;;4.48;88.43
63607;BME280;71992;52.478;-1.918;2024-03-23T05:41:54;99364.59;;;4.45;86.81
63607;BME280;71992;52.478;-1.918;2024-03-23T05:44:22;99353.91;;;4.47;88.44
63607;BME280;71992;52.478;-1.918;2024-03-23T05:46:51;99356.50;;;4.48;87.76
63607;BME280;71992;52.478;-1.918;2024-03-23T05:49:19;99372.56;;;4.44;87.08
63607;BME280;71992;52.478;-1.918;2024-03-23T05:51:50;99371.00;;;4.39;87.11
63607;BME280;71992;52.478;-1.918;2024-03-23T05:54:18;99377.22;;;4.38;87.73
63607;BME280;71992;52.478;-1.918;2024-03-23T05:56:46;99373.78;;;4.36;87.26
63607;BME280;71992;52.478;-1.918;2024-03-23T05:59:14;99372.00;;;4.37;87.56
63607;BME280;71992;52.478;-1.918;2024-03-23T06:01:42;99369.56;;;4.32;87.49
63607;BME280;71992;52.478;-1.918;2024-03-23T06:04:10;99371.44;;;4.30;87.47
63607;BME280;71992;52.478;-1.918;2024-03-23T06:06:39;99372.91;;;4.36;87.89
63607;BME280;71992;52.478;-1.918;2024-03-23T06:09:10;99362.50;;;4.33;86.89
63607;BME280;71992;52.478;-1.918;2024-03-23T06:11:38;99352.13;;;4.28;87.72
63607;BME280;71992;52.478;-1.918;2024-03-23T06:14:06;99356.50;;;4.29;87.85
63607;BME280;71992;52.478;-1.918;2024-03-23T06:16:34;99366.19;;;4.29;87.03
63607;BME280;71992;52.478;-1.918;2024-03-23T06:19:03;99374.00;;;4.32;87.56
63607;BME280;71992;52.478;-1.918;2024-03-23T06:21:31;99350.78;;;4.38;88.66
63607;BME280;71992;52.478;-1.918;2024-03-23T06:24:00;99354.84;;;4.46;87.50
63607;BME280;71992;52.478;-1.918;2024-03-23T06:26:30;99356.66;;;4.45;87.74
63607;BME280;71992;52.478;-1.918;2024-03-23T06:28:59;99355.72;;;4.46;87.71
63607;BME280;71992;52.478;-1.918;2024-03-23T06:31:27;99350.41;;;4.46;86.62
63607;BME280;71992;52.478;-1.918;2024-03-23T06:33:56;99353.13;;;4.45;86.84
63607;BME280;71992;52.478;-1.918;2024-03-23T06:36:24;99363.63;;;4.46;87.09
63607;BME280;71992;52.478;-1.918;2024-03-23T06:38:52;99358.19;;;4.49;86.99
63607;BME280;71992;52.478;-1.918;2024-03-23T06:41:20;99354.66;;;4.50;86.84
63607;BME280;71992;52.478;-1.918;2024-03-23T06:43:51;99352.22;;;4.46;86.62
63607;BME280;71992;52.478;-1.918;2024-03-23T06:46:19;99362.47;;;4.52;88.39
63607;BME280;71992;52.478;-1.918;2024-03-23T06:48:47;99358.50;;;4.62;88.34
63607;BME280;71992;52.478;-1.918;2024-03-23T06:51:15;99360.91;;;4.67;86.73
63607;BME280;71992;52.478;-1.918;2024-03-23T06:53:43;99355.47;;;4.70;87.28
63607;BME280;71992;52.478;-1.918;2024-03-23T06:56:12;99347.31;;;4.74;87.03
63607;BME280;71992;52.478;-1.918;2024-03-23T06:58:40;99337.38;;;4.79;87.04
63607;BME280;71992;52.478;-1.918;2024-03-23T07:01:11;99343.53;;;4.80;86.98
63607;BME280;71992;52.478;-1.918;2024-03-23T07:03:39;99344.16;;;4.85;86.50
63607;BME280;71992;52.478;-1.918;2024-03-23T07:06:09;99345.34;;;4.97;87.94
63607;BME280;71992;52.478;-1.918;2024-03-23T07:08:37;99336.72;;;5.11;86.62
63607;BME280;71992;52.478;-1.918;2024-03-23T07:11:05;99332.47;;;5.26;87.51
63607;BME280;71992;52.478;-1.918;2024-03-23T07:13:34;99327.41;;;5.38;85.23
63607;BME280;71992;52.478;-1.918;2024-03-23T07:16:02;99317.03;;;5.51;86.26
63607;BME280;71992;52.478;-1.918;2024-03-23T07:18:33;99327.13;;;5.78;85.65
63607;BME280;71992;52.478;-1.918;2024-03-23T07:21:01;99327.03;;;5.97;84.67
63607;BME280;71992;52.478;-1.918;2024-03-23T07:23:30;99320.59;;;6.18;83.60
63607;BME280;71992;52.478;-1.918;2024-03-23T07:25:59;99324.09;;;6.51;82.17
63607;BME280;71992;52.478;-1.918;2024-03-23T07:28:28;99319.13;;;6.60;80.30
63607;BME280;71992;52.478;-1.918;2024-03-23T07:31:03;99325.78;;;6.83;80.45
63607;BME280;71992;52.478;-1.918;2024-03-23T07:33:36;99317.66;;;7.02;78.96
63607;BME280;71992;52.478;-1.918;2024-03-23T07:36:05;99324.63;;;7.19;77.82
63607;BME280;71992;52.478;-1.918;2024-03-23T07:38:34;99324.50;;;7.51;77.98
63607;BME280;71992;52.478;-1.918;2024-03-23T07:41:05;99325.81;;;7.88;76.95
63607;BME280;71992;52.478;-1.918;2024-03-23T07:43:33;99333.50;;;8.22;73.14
63607;BME280;71992;52.478;-1.918;2024-03-23T07:46:02;99327.63;;;8.45;72.73
63607;BME280;71992;52.478;-1.918;2024-03-23T07:48:31;99320.88;;;8.54;70.92
63607;BME280;71992;52.478;-1.918;2024-03-23T07:51:04;99314.06;;;8.77;71.62
63607;BME280;71992;52.478;-1.918;2024-03-23T07:53:33;99303.41;;;9.17;70.38
63607;BME280;71992;52.478;-1.918;2024-03-23T07:56:04;99294.50;;;9.18;68.68
63607;BME280;71992;52.478;-1.918;2024-03-23T07:58:33;99299.47;;;9.10;67.83
63607;BME280;71992;52.478;-1.918;2024-03-23T08:01:06;99291.72;;;9.32;67.42
63607;BME280;71992;52.478;-1.918;2024-03-23T08:03:36;99285.34;;;9.60;65.31
63607;BME280;71992;52.478;-1.918;2024-03-23T08:06:12;99288.03;;;9.60;65.17
63607;BME280;71992;52.478;-1.918;2024-03-23T08:08:41;99291.44;;;9.62;64.96
63607;BME280;71992;52.478;-1.918;2024-03-23T08:11:10;99285.59;;;9.57;62.07
63607;BME280;71992;52.478;-1.918;2024-03-23T08:13:39;99282.19;;;9.43;63.96
63607;BME280;71992;52.478;-1.918;2024-03-23T08:16:08;99288.25;;;9.57;64.84
63607;BME280;71992;52.478;-1.918;2024-03-23T08:18:36;99289.22;;;9.56;64.19
63607;BME280;71992;52.478;-1.918;2024-03-23T08:21:05;99275.53;;;9.35;62.90
63607;BME280;71992;52.478;-1.918;2024-03-23T08:23:37;99279.56;;;9.28;63.96
63607;BME280;71992;52.478;-1.918;2024-03-23T08:26:06;99275.75;;;9.58;62.39
63607;BME280;71992;52.478;-1.918;2024-03-23T08:28:35;99270.03;;;9.77;61.20
63607;BME280;71992;52.478;-1.918;2024-03-23T08:31:04;99258.81;;;9.97;60.94
63607;BME280;71992;52.478;-1.918;2024-03-23T08:33:33;99259.72;;;10.22;60.17
63607;BME280;71992;52.478;-1.918;2024-03-23T08:36:03;99252.94;;;10.42;60.24
63607;BME280;71992;52.478;-1.918;2024-03-23T08:38:31;99262.34;;;10.72;59.68
63607;BME280;71992;52.478;-1.918;2024-03-23T08:41:03;99252.00;;;10.91;57.98
63607;BME280;71992;52.478;-1.918;2024-03-23T08:43:33;99248.22;;;10.82;57.90
63607;BME280;71992;52.478;-1.918;2024-03-23T08:46:04;99254.53;;;10.44;57.57
63607;BME280;71992;52.478;-1.918;2024-03-23T08:48:34;99245.97;;;10.15;58.75
63607;BME280;71992;52.478;-1.918;2024-03-23T08:51:04;99251.03;;;9.69;59.57
63607;BME280;71992;52.478;-1.918;2024-03-23T08:53:32;99236.31;;;9.50;61.44
63607;BME280;71992;52.478;-1.918;2024-03-23T08:56:04;99244.63;;;9.33;61.17
63607;BME280;71992;52.478;-1.918;2024-03-23T08:58:33;99249.38;;;9.15;61.74
63607;BME280;71992;52.478;-1.918;2024-03-23T09:01:06;99242.13;;;9.04;62.08
63607;BME280;71992;52.478;-1.918;2024-03-23T09:03:34;99230.28;;;8.95;62.19
63607;BME280;71992;52.478;-1.918;2024-03-23T09:06:06;99231.09;;;8.83;61.76
63607;BME280;71992;52.478;-1.918;2024-03-23T09:08:35;99246.88;;;8.86;62.52
63607;BME280;71992;52.478;-1.918;2024-03-23T09:11:07;99227.94;;;9.04;62.83
63607;BME280;71992;52.478;-1.918;2024-03-23T09:13:36;99229.50;;;9.46;63.02
63607;BME280;71992;52.478;-1.918;2024-03-23T09:16:05;99220.22;;;9.65;60.80
63607;BME280;71992;52.478;-1.918;2024-03-23T09:18:35;99223.63;;;9.67;60.89
63607;BME280;71992;52.478;-1.918;2024-03-23T09:21:09;99234.19;;;9.43;61.31
63607;BME280;71992;52.478;-1.918;2024-03-23T09:23:38;99235.66;;;9.21;63.43
63607;BME280;71992;52.478;-1.918;2024-03-23T09:26:09;99229.75;;;8.90;63.12
63607;BME280;71992;52.478;-1.918;2024-03-23T09:28:37;99216.47;;;8.63;65.24
63607;BME280;71992;52.478;-1.918;2024-03-23T09:31:06;99228.28;;;8.45;65.29
63607;BME280;71992;52.478;-1.918;2024-03-23T09:33:35;99242.75;;;8.26;67.01
63607;BME280;71992;52.478;-1.918;2024-03-23T09:36:04;99250.00;;;8.10;69.67
63607;BME280;71992;52.478;-1.918;2024-03-23T09:38:33;99249.75;;;8.00;72.04
63607;BME280;71992;52.478;-1.918;2024-03-23T09:41:09;99241.03;;;7.84;73.24
63607;BME280;71992;52.478;-1.918;2024-03-23T09:43:37;99244.56;;;7.70;72.80
63607;BME280;71992;52.478;-1.918;2024-03-23T09:46:05;99238.09;;;7.60;73.22
63607;BME280;71992;52.478;-1.918;2024-03-23T09:48:34;99236.19;;;7.47;74.58
63607;BME280;71992;52.478;-1.918;2024-03-23T09:51:03;99238.38;;;7.41;74.63
63607;BME280;71992;52.478;-1.918;2024-03-23T09:53:31;99224.47;;;7.36;75.71
63607;BME280;71992;52.478;-1.918;2024-03-23T09:55:59;99226.56;;;7.30;77.36
63607;BME280;71992;52.478;-1.918;2024-03-23T09:58:30;99234.91;;;7.24;76.05
63607;BME280;71992;52.478;-1.918;2024-03-23T10:01:00;99230.75;;;7.20;76.71
63607;BME280;71992;52.478;-1.918;2024-03-23T10:03:28;99217.63;;;7.17;77.40
63607;BME280;71992;52.478;-1.918;2024-03-23T10:06:00;99227.81;;;7.25;77.98
63607;BME280;71992;52.478;-1.918;2024-03-23T10:08:29;99224.47;;;7.36;78.24
63607;BME280;71992;52.478;-1.918;2024-03-23T10:10:57;99219.75;;;7.41;78.13
63607;BME280;71992;52.478;-1.918;2024-03-23T10:13:26;99226.84;;;7.40;78.04
63607;BME280;71992;52.478;-1.918;2024-03-23T10:15:59;99218.16;;;7.38;78.02
63607;BME280;71992;52.478;-1.918;2024-03-23T10:18:27;99197.19;;;7.48;78.04
63607;BME280;71992;52.478;-1.918;2024-03-23T10:21:07;99203.16;;;7.51;77.81
63607;BME280;71992;52.478;-1.918;2024-03-23T10:23:37;99196.81;;;7.54;77.59
63607;BME280;71992;52.478;-1.918;2024-03-23T10:26:18;99205.06;;;7.49;77.92
63607;BME280;71992;52.478;-1.918;2024-03-23T10:28:54;99206.00;;;7.48;77.54
63607;BME280;71992;52.478;-1.918;2024-03-23T10:31:25;99209.22;;;7.39;77.82
63607;BME280;71992;52.478;-1.918;2024-03-23T10:33:53;99198.13;;;7.32;78.97
63607;BME280;71992;52.478;-1.918;2024-03-23T10:36:23;99197.00;;;7.22;78.63
63607;BME280;71992;52.478;-1.918;2024-03-23T10:38:52;99196.22;;;7.20;78.44
63607;BME280;71992;52.478;-1.918;2024-03-23T10:41:20;99193.72;;;7.17;78.26
63607;BME280;71992;52.478;-1.918;2024-03-23T10:43:49;99186.72;;;7.16;79.58
63607;BME280;71992;52.478;-1.918;2024-03-23T10:46:17;99198.69;;;7.23;80.49
63607;BME280;71992;52.478;-1.918;2024-03-23T10:48:48;99193.94;;;7.14;78.08
63607;BME280;71992;52.478;-1.918;2024-03-23T10:51:17;99203.66;;;6.99;79.60
63607;BME280;71992;52.478;-1.918;2024-03-23T10:53:46;99208.59;;;6.91;78.99
63607;BME280;71992;52.478;-1.918;2024-03-23T10:56:15;99199.81;;;6.75;79.30
63607;BME280;71992;52.478;-1.918;2024-03-23T10:58:47;99204.13;;;6.61;80.47
63607;BME280;71992;52.478;-1.918;2024-03-23T11:01:16;99198.97;;;6.58;79.88
63607;BME280;71992;52.478;-1.918;2024-03-23T11:03:48;99198.63;;;6.64;81.37
63607;BME280;71992;52.478;-1.918;2024-03-23T11:06:34;99202.00;;;6.82;82.94
63607;BME280;71992;52.478;-1.918;2024-03-23T11:09:03;99204.53;;;7.00;81.04
63607;BME280;71992;52.478;-1.918;2024-03-23T11:11:31;99199.78;;;7.05;80.13
63607;BME280;71992;52.478;-1.918;2024-03-23T11:13:59;99196.59;;;7.14;78.50
63607;BME280;71992;52.478;-1.918;2024-03-23T11:16:28;99187.56;;;7.17;78.71
63607;BME280;71992;52.478;-1.918;2024-03-23T11:22:00;99180.16;;;7.22;78.20
63607;BME280;71992;52.478;-1.918;2024-03-23T11:24:29;99186.72;;;7.30;77.77
63607;BME280;71992;52.478;-1.918;2024-03-23T11:26:57;99184.94;;;7.45;78.17
63607;BME280;71992;52.478;-1.918;2024-03-23T11:29:26;99174.78;;;7.52;76.81
63607;BME280;71992;52.478;-1.918;2024-03-23T11:31:54;99187.03;;;7.55;76.55
63607;BME280;71992;52.478;-1.918;2024-03-23T11:34:22;99181.44;;;7.59;76.57
63607;BME280;71992;52.478;-1.918;2024-03-23T11:37:05;99179.41;;;7.63;76.42
63607;BME280;71992;52.478;-1.918;2024-03-23T11:39:33;99175.28;;;7.59;75.14
63607;BME280;71992;52.478;-1.918;2024-03-23T11:42:01;99176.00;;;7.61;77.23
63607;BME280;71992;52.478;-1.918;2024-03-23T11:44:29;99174.69;;;7.68;76.49
63607;BME280;71992;52.478;-1.918;2024-03-23T11:47:07;99177.22;;;7.69;77.36
63607;BME280;71992;52.478;-1.918;2024-03-23T11:49:35;99167.53;;;7.83;76.62
63607;BME280;71992;52.478;-1.918;2024-03-23T11:52:07;99166.41;;;7.87;76.63
63607;BME280;71992;52.478;-1.918;2024-03-23T11:54:35;99176.81;;;7.90;76.13
63607;BME280;71992;52.478;-1.918;2024-03-23T11:57:07;99166.94;;;7.92;76.21
63607;BME280;71992;52.478;-1.918;2024-03-23T11:59:37;99169.72;;;7.90;76.44
63607;BME280;71992;52.478;-1.918;2024-03-23T12:02:06;99153.88;;;7.89;76.30
63607;BME280;71992;52.478;-1.918;2024-03-23T12:04:35;99165.59;;;7.99;75.68
63607;BME280;71992;52.478;-1.918;2024-03-23T12:07:14;99149.09;;;7.94;74.55
63607;BME280;71992;52.478;-1.918;2024-03-23T12:09:42;99144.16;;;7.88;73.48
63607;BME280;71992;52.478;-1.918;2024-03-23T12:12:13;99146.09;;;7.86;72.94
63607;BME280;71992;52.478;-1.918;2024-03-23T12:14:42;99134.88;;;7.81;72.36
63607;BME280;71992;52.478;-1.918;2024-03-23T12:17:12;99140.41;;;7.78;71.84
63607;BME280;71992;52.478;-1.918;2024-03-23T12:19:42;99133.94;;;7.82;72.49
63607;BME280;71992;52.478;-1.918;2024-03-23T12:22:12;99129.38;;;7.84;71.44
63607;BME280;71992;52.478;-1.918;2024-03-23T12:24:41;99126.34;;;7.76;71.48
63607;BME280;71992;52.478;-1.918;2024-03-23T12:27:09;99130.44;;;7.67;70.53
63607;BME280;71992;52.478;-1.918;2024-03-23T12:29:37;99132.00;;;7.57;70.30
63607;BME280;71992;52.478;-1.918;2024-03-23T12:32:05;99141.31;;;7.49;70.25
63607;BME280;71992;52.478;-1.918;2024-03-23T12:34:34;99156.97;;;7.54;72.11
63607;BME280;71992;52.478;-1.918;2024-03-23T12:37:02;99155.63;;;7.61;73.64
63607;BME280;71992;52.478;-1.918;2024-03-23T12:39:33;99137.69;;;7.50;73.18
63607;BME280;71992;52.478;-1.918;2024-03-23T12:42:02;99136.75;;;7.37;75.20
63607;BME280;71992;52.478;-1.918;2024-03-23T12:44:30;99136.09;;;7.34;74.90
63607;BME280;71992;52.478;-1.918;2024-03-23T12:46:58;99130.59;;;7.37;74.78
63607;BME280;71992;52.478;-1.918;2024-03-23T12:49:27;99118.72;;;7.42;75.45
63607;BME280;71992;52.478;-1.918;2024-03-23T12:51:56;99109.59;;;7.46;75.86
63607;BME280;71992;52.478;-1.918;2024-03-23T12:54:24;99102.00;;;7.55;75.24
63607;BME280;71992;52.478;-1.918;2024-03-23T12:56:55;99119.25;;;7.62;75.27
63607;BME280;71992;52.478;-1.918;2024-03-23T12:59:23;99121.63;;;7.66;73.88
63607;BME280;71992;52.478;-1.918;2024-03-23T13:01:51;99120.78;;;7.66;73.49
63607;BME280;71992;52.478;-1.918;2024-03-23T13:04:20;99140.53;;;7.62;73.03
63607;BME280;71992;52.478;-1.918;2024-03-23T13:06:48;99141.78;;;7.42;73.30
63607;BME280;71992;52.478;-1.918;2024-03-23T13:09:16;99141.31;;;7.21;73.50
63607;BME280;71992;52.478;-1.918;2024-03-23T13:11:44;99137.41;;;7.12;74.11
63607;BME280;71992;52.478;-1.918;2024-03-23T13:14:15;99130.69;;;7.06;74.62
63607;BME280;71992;52.478;-1.918;2024-03-23T13:16:43;99125.38;;;7.06;74.99
63607;BME280;71992;52.478;-1.918;2024-03-23T13:19:12;99114.34;;;7.13;75.75
63607;BME280;71992;52.478;-1.918;2024-03-23T13:21:40;99112.28;;;7.18;75.78
63607;BME280;71992;52.478;-1.918;2024-03-23T13:24:08;99118.03;;;7.24;75.93
63607;BME280;71992;52.478;-1.918;2024-03-23T13:26:36;99112.47;;;7.29;73.16
63607;BME280;71992;52.478;-1.918;2024-03-23T13:29:05;99110.00;;;7.26;73.12
63607;BME280;71992;52.478;-1.918;2024-03-23T13:31:35;99107.53;;;7.37;72.06
63607;BME280;71992;52.478;-1.918;2024-03-23T13:34:03;99110.28;;;7.50;69.75
63607;BME280;71992;52.478;-1.918;2024-03-23T13:36:32;99102.28;;;7.64;68.89
63607;BME280;71992;52.478;-1.918;2024-03-23T13:39:00;99104.72;;;7.67;67.29
63607;BME280;71992;52.478;-1.918;2024-03-23T13:41:28;99115.25;;;7.69;66.12
63607;BME280;71992;52.478;-1.918;2024-03-23T13:43:56;99110.03;;;7.67;64.47
63607;BME280;71992;52.478;-1.918;2024-03-23T13:46:24;99116.53;;;7.63;62.75
63607;BME280;71992;52.478;-1.918;2024-03-23T13:48:55;99105.78;;;7.65;62.59
63607;BME280;71992;52.478;-1.918;2024-03-23T13:51:24;99098.81;;;7.77;63.97
63607;BME280;71992;52.478;-1.918;2024-03-23T13:53:53;99093.09;;;7.83;63.87
63607;BME280;71992;52.478;-1.918;2024-03-23T13:56:22;99092.31;;;7.95;64.01
63607;BME280;71992;52.478;-1.918;2024-03-23T13:58:50;99090.31;;;7.99;63.26
63607;BME280;71992;52.478;-1.918;2024-03-23T14:01:18;99091.22;;;8.12;62.99
63607;BME280;71992;52.478;-1.918;2024-03-23T14:03:46;99083.97;;;8.14;63.48
63607;BME280;71992;52.478;-1.918;2024-03-23T14:06:17;99083.00;;;8.15;63.96